sensor_id;sensor_type;location;lat;lon;timestamp;P1;durP1;ratioP1;P2;durP2;ratioP2
69203;SDS011;56317;27.658;85.326;2023-08-08T00:01:36;4.70;;;1.95;;
69203;SDS011;56317;27.658;85.326;2023-08-08T00:04:04;3.60;;;1.90;;
69203;SDS011;56317;27.658;85.326;2023-08-08T00:06:31;3.03;;;1.80;;
69203;SDS011;56317;27.658;85.326;2023-08-08T00:08:58;5.72;;;2.95;;
69203;SDS011;56317;27.658;85.326;2023-08-08T00:11:25;4.15;;;2.55;;
69203;SDS011;56317;27.658;85.326;2023-08-08T00:13:52;4.38;;;2.30;;
69203;SDS011;56317;27.658;85.326;2023-08-08T00:16:19;3.30;;;2.00;;
69203;SDS011;56317;27.658;85.326;2023-08-08T00:18:47;5.25;;;1.90;;
69203;SDS011;56317;27.658;85.326;2023-08-08T00:21:16;4.00;;;1.77;;
69203;SDS011;56317;27.658;85.326;2023-08-08T00:23:43;5.35;;;1.90;;
69203;SDS011;56317;27.658;85.326;2023-08-08T00:26:10;3.67;;;1.80;;
69203;SDS011;56317;27.658;85.326;2023-08-08T00:28:38;5.45;;;2.38;;
69203;SDS011;56317;27.658;85.326;2023-08-08T00:31:05;3.67;;;1.65;;
69203;SDS011;56317;27.658;85.326;2023-08-08T00:33:32;3.97;;;1.90;;
69203;SDS011;56317;27.658;85.326;2023-08-08T00:35:59;4.53;;;2.30;;
69203;SDS011;56317;27.658;85.326;2023-08-08T00:38:26;6.28;;;2.10;;
69203;SDS011;56317;27.658;85.326;2023-08-08T00:40:53;4.78;;;2.50;;
69203;SDS011;56317;27.658;85.326;2023-08-08T00:43:21;4.65;;;2.67;;
69203;SDS011;56317;27.658;85.326;2023-08-08T00:45:48;7.95;;;3.03;;
69203;SDS011;56317;27.658;85.326;2023-08-08T00:48:16;4.25;;;2.45;;
69203;SDS011;56317;27.658;85.326;2023-08-08T00:50:44;6.10;;;3.15;;
69203;SDS011;56317;27.658;85.326;2023-08-08T00:53:14;6.40;;;2.83;;
69203;SDS011;56317;27.658;85.326;2023-08-08T00:55:42;6.60;;;2.45;;
69203;SDS011;56317;27.658;85.326;2023-08-08T00:58:09;5.85;;;2.42;;
69203;SDS011;56317;27.658;85.326;2023-08-08T01:00:38;4.40;;;2.42;;
69203;SDS011;56317;27.658;85.326;2023-08-08T01:03:05;4.75;;;2.55;;
69203;SDS011;56317;27.658;85.326;2023-08-08T01:05:35;8.45;;;3.10;;
69203;SDS011;56317;27.658;85.326;2023-08-08T01:08:15;6.90;;;2.77;;
69203;SDS011;56317;27.658;85.326;2023-08-08T01:10:45;7.13;;;3.85;;
69203;SDS011;56317;27.658;85.326;2023-08-08T01:13:22;4.85;;;2.95;;
69203;SDS011;56317;27.658;85.326;2023-08-08T01:15:52;5.68;;;2.78;;
69203;SDS011;56317;27.658;85.326;2023-08-08T01:18:21;6.40;;;2.90;;
69203;SDS011;56317;27.658;85.326;2023-08-08T01:20:48;7.32;;;3.47;;
69203;SDS011;56317;27.658;85.326;2023-08-08T01:26:03;5.68;;;3.13;;
69203;SDS011;56317;27.658;85.326;2023-08-08T01:28:30;6.10;;;2.95;;
69203;SDS011;56317;27.658;85.326;2023-08-08T01:30:57;6.05;;;3.08;;
69203;SDS011;56317;27.658;85.326;2023-08-08T01:33:24;8.05;;;3.10;;
69203;SDS011;56317;27.658;85.326;2023-08-08T01:36:10;7.85;;;4.00;;
69203;SDS011;56317;27.658;85.326;2023-08-08T01:39:00;8.00;;;4.15;;
69203;SDS011;56317;27.658;85.326;2023-08-08T01:41:34;6.87;;;4.30;;
69203;SDS011;56317;27.658;85.326;2023-08-08T01:44:05;9.35;;;5.38;;
69203;SDS011;56317;27.658;85.326;2023-08-08T01:46:32;9.07;;;4.93;;
69203;SDS011;56317;27.658;85.326;2023-08-08T01:49:01;7.53;;;4.32;;
69203;SDS011;56317;27.658;85.326;2023-08-08T01:51:29;11.98;;;4.97;;
69203;SDS011;56317;27.658;85.326;2023-08-08T01:53:56;9.20;;;5.30;;
69203;SDS011;56317;27.658;85.326;2023-08-08T01:56:23;12.07;;;5.72;;
69203;SDS011;56317;27.658;85.326;2023-08-08T01:58:50;8.85;;;6.03;;
69203;SDS011;56317;27.658;85.326;2023-08-08T02:01:18;12.20;;;6.82;;
69203;SDS011;56317;27.658;85.326;2023-08-08T02:03:45;9.82;;;6.00;;
69203;SDS011;56317;27.658;85.326;2023-08-08T02:06:12;10.75;;;6.28;;
69203;SDS011;56317;27.658;85.326;2023-08-08T02:08:39;12.85;;;6.80;;
69203;SDS011;56317;27.658;85.326;2023-08-08T02:11:06;13.32;;;7.32;;
69203;SDS011;56317;27.658;85.326;2023-08-08T02:13:33;13.00;;;7.50;;
69203;SDS011;56317;27.658;85.326;2023-08-08T02:16:00;13.40;;;8.35;;
69203;SDS011;56317;27.658;85.326;2023-08-08T02:18:27;14.18;;;8.63;;
69203;SDS011;56317;27.658;85.326;2023-08-08T02:20:54;12.98;;;8.07;;
69203;SDS011;56317;27.658;85.326;2023-08-08T02:23:21;14.85;;;8.40;;
69203;SDS011;56317;27.658;85.326;2023-08-08T02:25:49;17.40;;;10.18;;
69203;SDS011;56317;27.658;85.326;2023-08-08T02:28:16;14.90;;;8.30;;
69203;SDS011;56317;27.658;85.326;2023-08-08T02:30:43;11.00;;;6.40;;
69203;SDS011;56317;27.658;85.326;2023-08-08T02:33:10;10.50;;;6.18;;
69203;SDS011;56317;27.658;85.326;2023-08-08T02:35:37;9.95;;;6.95;;
69203;SDS011;56317;27.658;85.326;2023-08-08T02:38:05;13.55;;;7.80;;
69203;SDS011;56317;27.658;85.326;2023-08-08T02:40:32;9.75;;;7.05;;
69203;SDS011;56317;27.658;85.326;2023-08-08T02:42:59;13.95;;;8.80;;
69203;SDS011;56317;27.658;85.326;2023-08-08T02:45:26;12.63;;;8.45;;
69203;SDS011;56317;27.658;85.326;2023-08-08T02:47:53;12.50;;;8.25;;
69203;SDS011;56317;27.658;85.326;2023-08-08T02:50:21;14.68;;;8.88;;
69203;SDS011;56317;27.658;85.326;2023-08-08T02:52:48;13.23;;;8.02;;
69203;SDS011;56317;27.658;85.326;2023-08-08T02:55:16;13.70;;;8.63;;
69203;SDS011;56317;27.658;85.326;2023-08-08T02:57:43;13.73;;;8.63;;
69203;SDS011;56317;27.658;85.326;2023-08-08T03:00:10;11.80;;;9.02;;
69203;SDS011;56317;27.658;85.326;2023-08-08T03:02:38;13.68;;;8.82;;
69203;SDS011;56317;27.658;85.326;2023-08-08T03:05:05;12.80;;;8.82;;
69203;SDS011;56317;27.658;85.326;2023-08-08T03:07:41;15.20;;;8.77;;
69203;SDS011;56317;27.658;85.326;2023-08-08T03:10:08;14.38;;;8.85;;
69203;SDS011;56317;27.658;85.326;2023-08-08T03:12:48;14.10;;;9.55;;
69203;SDS011;56317;27.658;85.326;2023-08-08T03:15:15;17.02;;;7.72;;
69203;SDS011;56317;27.658;85.326;2023-08-08T03:17:45;14.57;;;7.65;;
69203;SDS011;56317;27.658;85.326;2023-08-08T03:20:12;13.25;;;7.75;;
69203;SDS011;56317;27.658;85.326;2023-08-08T03:22:39;11.13;;;7.63;;
69203;SDS011;56317;27.658;85.326;2023-08-08T03:25:08;12.25;;;7.72;;
69203;SDS011;56317;27.658;85.326;2023-08-08T03:27:38;11.07;;;7.90;;
69203;SDS011;56317;27.658;85.326;2023-08-08T03:30:05;13.57;;;8.23;;
69203;SDS011;56317;27.658;85.326;2023-08-08T03:32:33;13.38;;;8.57;;
69203;SDS011;56317;27.658;85.326;2023-08-08T03:35:00;10.18;;;6.90;;
69203;SDS011;56317;27.658;85.326;2023-08-08T03:37:29;11.90;;;7.93;;
69203;SDS011;56317;27.658;85.326;2023-08-08T03:39:56;10.73;;;7.38;;
69203;SDS011;56317;27.658;85.326;2023-08-08T03:42:23;10.93;;;7.25;;
69203;SDS011;56317;27.658;85.326;2023-08-08T03:44:50;13.07;;;7.68;;
69203;SDS011;56317;27.658;85.326;2023-08-08T03:47:17;12.35;;;7.78;;
69203;SDS011;56317;27.658;85.326;2023-08-08T03:49:44;11.65;;;8.07;;
69203;SDS011;56317;27.658;85.326;2023-08-08T03:52:12;11.95;;;7.53;;
69203;SDS011;56317;27.658;85.326;2023-08-08T03:54:39;11.80;;;7.95;;
69203;SDS011;56317;27.658;85.326;2023-08-08T03:57:06;11.90;;;8.52;;
69203;SDS011;56317;27.658;85.326;2023-08-08T03:59:33;11.70;;;8.70;;
69203;SDS011;56317;27.658;85.326;2023-08-08T04:02:01;13.52;;;8.73;;
69203;SDS011;56317;27.658;85.326;2023-08-08T04:04:28;14.18;;;9.68;;
69203;SDS011;56317;27.658;85.326;2023-08-08T04:06:55;14.82;;;10.35;;
69203;SDS011;56317;27.658;85.326;2023-08-08T04:09:22;15.38;;;10.60;;
69203;SDS011;56317;27.658;85.326;2023-08-08T04:11:50;21.38;;;13.68;;
69203;SDS011;56317;27.658;85.326;2023-08-08T04:14:17;19.95;;;13.45;;
69203;SDS011;56317;27.658;85.326;2023-08-08T04:16:44;16.67;;;12.88;;
69203;SDS011;56317;27.658;85.326;2023-08-08T04:19:11;17.98;;;11.45;;
69203;SDS011;56317;27.658;85.326;2023-08-08T04:21:38;17.05;;;10.25;;
69203;SDS011;56317;27.658;85.326;2023-08-08T04:24:07;13.88;;;10.18;;
69203;SDS011;56317;27.658;85.326;2023-08-08T04:26:34;14.68;;;9.73;;
69203;SDS011;56317;27.658;85.326;2023-08-08T04:29:01;13.18;;;9.00;;
69203;SDS011;56317;27.658;85.326;2023-08-08T04:31:29;11.80;;;8.63;;
69203;SDS011;56317;27.658;85.326;2023-08-08T04:33:56;13.50;;;8.57;;
69203;SDS011;56317;27.658;85.326;2023-08-08T04:36:26;14.02;;;10.07;;
69203;SDS011;56317;27.658;85.326;2023-08-08T04:38:54;13.45;;;8.30;;
69203;SDS011;56317;27.658;85.326;2023-08-08T04:41:21;13.50;;;8.38;;
69203;SDS011;56317;27.658;85.326;2023-08-08T04:43:49;11.32;;;8.18;;
69203;SDS011;56317;27.658;85.326;2023-08-08T04:46:16;10.43;;;7.00;;
69203;SDS011;56317;27.658;85.326;2023-08-08T04:48:43;11.18;;;7.43;;
69203;SDS011;56317;27.658;85.326;2023-08-08T04:51:11;12.85;;;8.60;;
69203;SDS011;56317;27.658;85.326;2023-08-08T04:53:38;14.95;;;8.48;;
69203;SDS011;56317;27.658;85.326;2023-08-08T04:56:05;10.40;;;6.47;;
69203;SDS011;56317;27.658;85.326;2023-08-08T04:58:32;10.13;;;6.25;;
69203;SDS011;56317;27.658;85.326;2023-08-08T05:00:59;8.73;;;6.35;;
69203;SDS011;56317;27.658;85.326;2023-08-08T05:03:27;7.18;;;4.72;;
69203;SDS011;56317;27.658;85.326;2023-08-08T05:05:54;9.65;;;5.40;;
69203;SDS011;56317;27.658;85.326;2023-08-08T05:08:21;8.65;;;4.40;;
69203;SDS011;56317;27.658;85.326;2023-08-08T05:10:48;5.38;;;4.13;;
69203;SDS011;56317;27.658;85.326;2023-08-08T05:13:16;5.63;;;3.70;;
69203;SDS011;56317;27.658;85.326;2023-08-08T05:15:43;5.88;;;3.78;;
69203;SDS011;56317;27.658;85.326;2023-08-08T05:18:10;5.18;;;3.45;;
69203;SDS011;56317;27.658;85.326;2023-08-08T05:20:38;6.30;;;4.05;;
69203;SDS011;56317;27.658;85.326;2023-08-08T05:23:05;4.55;;;2.95;;
69203;SDS011;56317;27.658;85.326;2023-08-08T05:25:33;5.45;;;2.70;;
69203;SDS011;56317;27.658;85.326;2023-08-08T05:28:00;5.75;;;3.15;;
69203;SDS011;56317;27.658;85.326;2023-08-08T05:30:27;5.35;;;3.10;;
69203;SDS011;56317;27.658;85.326;2023-08-08T05:32:54;4.18;;;2.60;;
69203;SDS011;56317;27.658;85.326;2023-08-08T05:35:22;6.38;;;2.80;;
69203;SDS011;56317;27.658;85.326;2023-08-08T05:37:49;4.82;;;2.70;;
69203;SDS011;56317;27.658;85.326;2023-08-08T05:40:16;17.23;;;14.77;;
69203;SDS011;56317;27.658;85.326;2023-08-08T05:42:43;10.45;;;5.97;;
69203;SDS011;56317;27.658;85.326;2023-08-08T05:45:10;8.65;;;3.58;;
69203;SDS011;56317;27.658;85.326;2023-08-08T05:47:37;4.82;;;2.70;;
69203;SDS011;56317;27.658;85.326;2023-08-08T05:50:05;7.38;;;3.60;;
69203;SDS011;56317;27.658;85.326;2023-08-08T05:52:34;7.43;;;3.53;;
69203;SDS011;56317;27.658;85.326;2023-08-08T05:55:01;7.47;;;3.30;;
69203;SDS011;56317;27.658;85.326;2023-08-08T05:57:40;6.90;;;3.35;;
69203;SDS011;56317;27.658;85.326;2023-08-08T06:00:07;7.53;;;4.32;;
69203;SDS011;56317;27.658;85.326;2023-08-08T06:02:37;6.30;;;3.50;;
69203;SDS011;56317;27.658;85.326;2023-08-08T06:05:04;8.10;;;2.72;;
69203;SDS011;56317;27.658;85.326;2023-08-08T06:07:32;7.15;;;3.90;;
69203;SDS011;56317;27.658;85.326;2023-08-08T06:10:00;4.32;;;2.72;;
69203;SDS011;56317;27.658;85.326;2023-08-08T06:12:28;6.20;;;2.67;;
69203;SDS011;56317;27.658;85.326;2023-08-08T06:14:55;6.13;;;3.15;;
69203;SDS011;56317;27.658;85.326;2023-08-08T06:17:23;7.57;;;3.70;;
69203;SDS011;56317;27.658;85.326;2023-08-08T06:19:50;6.80;;;3.47;;
69203;SDS011;56317;27.658;85.326;2023-08-08T06:22:19;6.07;;;3.05;;
69203;SDS011;56317;27.658;85.326;2023-08-08T06:24:46;5.57;;;2.90;;
69203;SDS011;56317;27.658;85.326;2023-08-08T06:27:13;5.88;;;3.78;;
69203;SDS011;56317;27.658;85.326;2023-08-08T06:29:41;7.13;;;2.70;;
69203;SDS011;56317;27.658;85.326;2023-08-08T06:32:08;7.10;;;3.47;;
69203;SDS011;56317;27.658;85.326;2023-08-08T06:34:35;7.20;;;3.50;;
69203;SDS011;56317;27.658;85.326;2023-08-08T06:37:03;8.43;;;3.10;;
69203;SDS011;56317;27.658;85.326;2023-08-08T06:39:30;8.02;;;3.00;;
69203;SDS011;56317;27.658;85.326;2023-08-08T06:41:57;6.95;;;3.45;;
69203;SDS011;56317;27.658;85.326;2023-08-08T06:44:25;7.30;;;3.22;;
69203;SDS011;56317;27.658;85.326;2023-08-08T06:46:52;8.13;;;4.53;;
69203;SDS011;56317;27.658;85.326;2023-08-08T06:49:19;4.43;;;2.38;;
69203;SDS011;56317;27.658;85.326;2023-08-08T06:51:49;5.32;;;2.38;;
69203;SDS011;56317;27.658;85.326;2023-08-08T06:54:16;7.40;;;3.15;;
69203;SDS011;56317;27.658;85.326;2023-08-08T06:56:43;5.07;;;2.45;;
69203;SDS011;56317;27.658;85.326;2023-08-08T06:59:10;5.10;;;2.92;;
69203;SDS011;56317;27.658;85.326;2023-08-08T07:01:38;6.50;;;2.80;;
69203;SDS011;56317;27.658;85.326;2023-08-08T07:04:06;5.55;;;2.80;;
69203;SDS011;56317;27.658;85.326;2023-08-08T07:06:33;4.82;;;2.63;;
69203;SDS011;56317;27.658;85.326;2023-08-08T07:09:00;4.32;;;2.60;;
69203;SDS011;56317;27.658;85.326;2023-08-08T07:11:27;4.00;;;1.88;;
69203;SDS011;56317;27.658;85.326;2023-08-08T07:13:54;5.53;;;2.28;;
69203;SDS011;56317;27.658;85.326;2023-08-08T07:16:22;4.80;;;1.90;;
69203;SDS011;56317;27.658;85.326;2023-08-08T07:18:49;5.28;;;1.73;;
69203;SDS011;56317;27.658;85.326;2023-08-08T07:21:16;7.35;;;1.80;;
69203;SDS011;56317;27.658;85.326;2023-08-08T07:23:43;4.38;;;1.90;;
69203;SDS011;56317;27.658;85.326;2023-08-08T07:26:10;6.97;;;1.38;;
69203;SDS011;56317;27.658;85.326;2023-08-08T07:28:38;5.28;;;1.90;;
69203;SDS011;56317;27.658;85.326;2023-08-08T07:31:08;7.47;;;1.60;;
69203;SDS011;56317;27.658;85.326;2023-08-08T07:33:35;5.40;;;1.50;;
69203;SDS011;56317;27.658;85.326;2023-08-08T07:36:03;6.35;;;2.22;;
69203;SDS011;56317;27.658;85.326;2023-08-08T07:38:31;6.97;;;3.90;;
69203;SDS011;56317;27.658;85.326;2023-08-08T07:40:58;3.53;;;1.65;;
69203;SDS011;56317;27.658;85.326;2023-08-08T07:43:25;10.10;;;3.78;;
69203;SDS011;56317;27.658;85.326;2023-08-08T07:45:53;4.43;;;1.75;;
69203;SDS011;56317;27.658;85.326;2023-08-08T07:48:20;4.25;;;1.90;;
69203;SDS011;56317;27.658;85.326;2023-08-08T07:50:47;9.50;;;2.42;;
69203;SDS011;56317;27.658;85.326;2023-08-08T07:53:14;2.80;;;1.52;;
69203;SDS011;56317;27.658;85.326;2023-08-08T07:55:41;4.20;;;1.58;;
69203;SDS011;56317;27.658;85.326;2023-08-08T07:58:08;6.53;;;2.30;;
69203;SDS011;56317;27.658;85.326;2023-08-08T08:00:36;5.57;;;2.15;;
69203;SDS011;56317;27.658;85.326;2023-08-08T08:03:04;9.05;;;2.10;;
69203;SDS011;56317;27.658;85.326;2023-08-08T08:05:31;5.55;;;2.10;;
69203;SDS011;56317;27.658;85.326;2023-08-08T08:08:00;10.65;;;2.72;;
69203;SDS011;56317;27.658;85.326;2023-08-08T08:10:28;4.85;;;2.42;;
69203;SDS011;56317;27.658;85.326;2023-08-08T08:12:55;5.68;;;2.60;;
69203;SDS011;56317;27.658;85.326;2023-08-08T08:15:24;10.63;;;2.88;;
69203;SDS011;56317;27.658;85.326;2023-08-08T08:17:52;7.50;;;2.75;;
69203;SDS011;56317;27.658;85.326;2023-08-08T08:20:19;7.90;;;3.00;;
69203;SDS011;56317;27.658;85.326;2023-08-08T08:22:47;8.75;;;2.83;;
69203;SDS011;56317;27.658;85.326;2023-08-08T08:25:14;6.15;;;2.60;;
69203;SDS011;56317;27.658;85.326;2023-08-08T08:27:41;7.55;;;3.78;;
69203;SDS011;56317;27.658;85.326;2023-08-08T08:30:09;5.38;;;2.20;;
69203;SDS011;56317;27.658;85.326;2023-08-08T08:32:39;7.50;;;2.42;;
69203;SDS011;56317;27.658;85.326;2023-08-08T08:35:07;13.13;;;5.50;;
69203;SDS011;56317;27.658;85.326;2023-08-08T08:37:35;7.15;;;2.92;;
69203;SDS011;56317;27.658;85.326;2023-08-08T08:40:02;8.23;;;2.22;;
69203;SDS011;56317;27.658;85.326;2023-08-08T08:42:30;5.95;;;2.78;;
69203;SDS011;56317;27.658;85.326;2023-08-08T08:44:59;4.55;;;2.60;;
69203;SDS011;56317;27.658;85.326;2023-08-08T08:47:27;6.07;;;2.17;;
69203;SDS011;56317;27.658;85.326;2023-08-08T08:49:57;9.25;;;2.72;;
69203;SDS011;56317;27.658;85.326;2023-08-08T08:52:30;14.38;;;3.53;;
69203;SDS011;56317;27.658;85.326;2023-08-08T08:54:58;5.93;;;3.65;;
69203;SDS011;56317;27.658;85.326;2023-08-08T08:57:25;5.40;;;2.88;;
69203;SDS011;56317;27.658;85.326;2023-08-08T08:59:52;6.05;;;3.05;;
69203;SDS011;56317;27.658;85.326;2023-08-08T09:02:20;6.20;;;3.28;;
69203;SDS011;56317;27.658;85.326;2023-08-08T09:04:48;5.80;;;2.75;;
69203;SDS011;56317;27.658;85.326;2023-08-08T09:07:17;7.07;;;3.63;;
69203;SDS011;56317;27.658;85.326;2023-08-08T09:09:46;4.43;;;2.50;;
69203;SDS011;56317;27.658;85.326;2023-08-08T09:12:14;7.97;;;4.80;;
69203;SDS011;56317;27.658;85.326;2023-08-08T09:14:42;6.75;;;2.92;;
69203;SDS011;56317;27.658;85.326;2023-08-08T09:17:10;6.70;;;2.97;;
69203;SDS011;56317;27.658;85.326;2023-08-08T09:19:44;8.70;;;2.70;;
69203;SDS011;56317;27.658;85.326;2023-08-08T09:22:12;5.63;;;2.92;;
69203;SDS011;56317;27.658;85.326;2023-08-08T09:24:40;6.43;;;3.28;;
69203;SDS011;56317;27.658;85.326;2023-08-08T09:27:07;9.35;;;3.55;;
69203;SDS011;56317;27.658;85.326;2023-08-08T09:29:36;10.35;;;3.65;;
69203;SDS011;56317;27.658;85.326;2023-08-08T09:32:04;9.23;;;3.92;;
69203;SDS011;56317;27.658;85.326;2023-08-08T09:34:32;9.73;;;4.03;;
69203;SDS011;56317;27.658;85.326;2023-08-08T09:37:00;7.55;;;3.40;;
69203;SDS011;56317;27.658;85.326;2023-08-08T09:39:28;9.88;;;3.42;;
69203;SDS011;56317;27.658;85.326;2023-08-08T09:41:56;8.57;;;3.60;;
69203;SDS011;56317;27.658;85.326;2023-08-08T09:44:23;6.40;;;3.28;;
69203;SDS011;56317;27.658;85.326;2023-08-08T09:46:53;6.18;;;3.78;;
69203;SDS011;56317;27.658;85.326;2023-08-08T09:49:21;13.00;;;4.05;;
69203;SDS011;56317;27.658;85.326;2023-08-08T09:51:49;6.45;;;3.65;;
69203;SDS011;56317;27.658;85.326;2023-08-08T09:54:16;10.63;;;3.42;;
69203;SDS011;56317;27.658;85.326;2023-08-08T09:56:47;13.50;;;3.80;;
69203;SDS011;56317;27.658;85.326;2023-08-08T09:59:16;7.43;;;3.38;;
69203;SDS011;56317;27.658;85.326;2023-08-08T10:01:44;7.22;;;3.53;;
69203;SDS011;56317;27.658;85.326;2023-08-08T10:04:12;9.27;;;3.92;;
69203;SDS011;56317;27.658;85.326;2023-08-08T10:06:40;10.30;;;4.00;;
69203;SDS011;56317;27.658;85.326;2023-08-08T10:09:07;7.80;;;3.42;;
69203;SDS011;56317;27.658;85.326;2023-08-08T10:11:34;6.78;;;3.90;;
69203;SDS011;56317;27.658;85.326;2023-08-08T10:14:02;10.50;;;4.13;;
69203;SDS011;56317;27.658;85.326;2023-08-08T10:16:33;7.63;;;3.38;;
69203;SDS011;56317;27.658;85.326;2023-08-08T10:19:01;6.35;;;3.75;;
69203;SDS011;56317;27.658;85.326;2023-08-08T10:21:41;8.15;;;3.60;;
69203;SDS011;56317;27.658;85.326;2023-08-08T10:24:13;7.32;;;3.35;;
69203;SDS011;56317;27.658;85.326;2023-08-08T10:26:59;9.32;;;4.10;;
69203;SDS011;56317;27.658;85.326;2023-08-08T10:29:29;8.45;;;3.90;;
69203;SDS011;56317;27.658;85.326;2023-08-08T10:32:01;8.77;;;3.92;;
69203;SDS011;56317;27.658;85.326;2023-08-08T10:37:18;14.70;;;4.00;;
69203;SDS011;56317;27.658;85.326;2023-08-08T10:42:26;13.15;;;3.63;;
69203;SDS011;56317;27.658;85.326;2023-08-08T10:44:54;8.82;;;3.70;;
69203;SDS011;56317;27.658;85.326;2023-08-08T10:47:31;8.95;;;3.92;;
69203;SDS011;56317;27.658;85.326;2023-08-08T10:55:21;11.80;;;5.57;;
69203;SDS011;56317;27.658;85.326;2023-08-08T10:58:02;22.20;;;10.35;;
69203;SDS011;56317;27.658;85.326;2023-08-08T11:00:41;21.42;;;8.75;;
69203;SDS011;56317;27.658;85.326;2023-08-08T11:03:08;19.05;;;9.35;;
69203;SDS011;56317;27.658;85.326;2023-08-08T11:05:40;15.68;;;6.63;;
69203;SDS011;56317;27.658;85.326;2023-08-08T11:08:14;10.88;;;5.35;;
69203;SDS011;56317;27.658;85.326;2023-08-08T11:10:42;15.15;;;6.30;;
69203;SDS011;56317;27.658;85.326;2023-08-08T11:13:09;15.55;;;6.38;;
69203;SDS011;56317;27.658;85.326;2023-08-08T11:15:36;17.25;;;7.25;;
69203;SDS011;56317;27.658;85.326;2023-08-08T11:18:04;18.58;;;8.18;;
69203;SDS011;56317;27.658;85.326;2023-08-08T11:20:32;18.42;;;8.48;;
69203;SDS011;56317;27.658;85.326;2023-08-08T11:23:02;20.02;;;8.65;;
69203;SDS011;56317;27.658;85.326;2023-08-08T11:25:36;17.58;;;6.35;;
69203;SDS011;56317;27.658;85.326;2023-08-08T11:28:05;13.50;;;6.47;;
69203;SDS011;56317;27.658;85.326;2023-08-08T11:30:43;15.63;;;5.88;;
69203;SDS011;56317;27.658;85.326;2023-08-08T11:33:14;14.07;;;6.55;;
69203;SDS011;56317;27.658;85.326;2023-08-08T11:35:44;13.05;;;6.32;;
69203;SDS011;56317;27.658;85.326;2023-08-08T11:38:14;16.88;;;7.25;;
69203;SDS011;56317;27.658;85.326;2023-08-08T11:40:42;13.55;;;7.93;;
69203;SDS011;56317;27.658;85.326;2023-08-08T11:43:10;13.82;;;6.75;;
69203;SDS011;56317;27.658;85.326;2023-08-08T11:45:39;18.70;;;7.47;;
69203;SDS011;56317;27.658;85.326;2023-08-08T11:48:07;11.85;;;6.78;;
69203;SDS011;56317;27.658;85.326;2023-08-08T11:50:36;13.35;;;7.30;;
69203;SDS011;56317;27.658;85.326;2023-08-08T11:53:06;14.70;;;7.82;;
69203;SDS011;56317;27.658;85.326;2023-08-08T11:55:33;11.23;;;6.65;;
69203;SDS011;56317;27.658;85.326;2023-08-08T11:58:03;11.52;;;6.45;;
69203;SDS011;56317;27.658;85.326;2023-08-08T12:00:31;12.57;;;6.78;;
69203;SDS011;56317;27.658;85.326;2023-08-08T12:03:00;10.73;;;5.72;;
69203;SDS011;56317;27.658;85.326;2023-08-08T12:05:29;11.60;;;6.53;;
69203;SDS011;56317;27.658;85.326;2023-08-08T12:08:02;16.10;;;6.03;;
69203;SDS011;56317;27.658;85.326;2023-08-08T12:10:32;12.45;;;7.32;;
69203;SDS011;56317;27.658;85.326;2023-08-08T12:12:59;14.95;;;5.78;;
69203;SDS011;56317;27.658;85.326;2023-08-08T12:15:29;11.20;;;5.88;;
69203;SDS011;56317;27.658;85.326;2023-08-08T12:18:21;9.82;;;5.43;;
69203;SDS011;56317;27.658;85.326;2023-08-08T12:20:49;10.90;;;5.57;;
69203;SDS011;56317;27.658;85.326;2023-08-08T12:23:16;8.73;;;5.68;;
69203;SDS011;56317;27.658;85.326;2023-08-08T12:25:43;10.32;;;5.45;;
69203;SDS011;56317;27.658;85.326;2023-08-08T12:28:11;12.38;;;5.90;;
69203;SDS011;56317;27.658;85.326;2023-08-08T12:30:39;8.25;;;5.20;;
69203;SDS011;56317;27.658;85.326;2023-08-08T12:33:06;11.55;;;5.32;;
69203;SDS011;56317;27.658;85.326;2023-08-08T12:35:33;10.93;;;5.28;;
69203;SDS011;56317;27.658;85.326;2023-08-08T12:38:00;10.15;;;5.35;;
69203;SDS011;56317;27.658;85.326;2023-08-08T12:40:28;14.98;;;5.85;;
69203;SDS011;56317;27.658;85.326;2023-08-08T12:42:56;15.93;;;5.50;;
69203;SDS011;56317;27.658;85.326;2023-08-08T12:45:23;10.75;;;6.30;;
69203;SDS011;56317;27.658;85.326;2023-08-08T12:47:50;13.95;;;6.15;;
69203;SDS011;56317;27.658;85.326;2023-08-08T12:50:17;15.02;;;5.75;;
69203;SDS011;56317;27.658;85.326;2023-08-08T12:52:44;14.13;;;5.68;;
69203;SDS011;56317;27.658;85.326;2023-08-08T12:55:11;16.17;;;6.15;;
69203;SDS011;56317;27.658;85.326;2023-08-08T12:57:40;16.58;;;6.50;;
69203;SDS011;56317;27.658;85.326;2023-08-08T13:00:07;13.02;;;6.00;;
69203;SDS011;56317;27.658;85.326;2023-08-08T13:02:35;10.93;;;6.50;;
69203;SDS011;56317;27.658;85.326;2023-08-08T13:05:03;15.05;;;5.53;;
69203;SDS011;56317;27.658;85.326;2023-08-08T13:07:32;11.88;;;7.13;;
69203;SDS011;56317;27.658;85.326;2023-08-08T13:09:59;12.38;;;5.95;;
69203;SDS011;56317;27.658;85.326;2023-08-08T13:12:26;12.32;;;6.00;;
69203;SDS011;56317;27.658;85.326;2023-08-08T13:14:53;12.10;;;6.25;;
69203;SDS011;56317;27.658;85.326;2023-08-08T13:17:21;11.25;;;6.60;;
69203;SDS011;56317;27.658;85.326;2023-08-08T13:19:48;12.23;;;6.22;;
69203;SDS011;56317;27.658;85.326;2023-08-08T13:22:15;21.80;;;12.45;;
69203;SDS011;56317;27.658;85.326;2023-08-08T13:24:42;32.78;;;19.00;;
69203;SDS011;56317;27.658;85.326;2023-08-08T13:27:09;31.63;;;17.00;;
69203;SDS011;56317;27.658;85.326;2023-08-08T13:29:36;24.58;;;12.45;;
69203;SDS011;56317;27.658;85.326;2023-08-08T13:32:04;17.38;;;10.38;;
69203;SDS011;56317;27.658;85.326;2023-08-08T13:34:31;18.98;;;9.18;;
69203;SDS011;56317;27.658;85.326;2023-08-08T13:36:58;19.50;;;8.48;;
69203;SDS011;56317;27.658;85.326;2023-08-08T13:39:25;13.70;;;8.35;;
69203;SDS011;56317;27.658;85.326;2023-08-08T13:41:53;17.52;;;8.63;;
69203;SDS011;56317;27.658;85.326;2023-08-08T13:44:20;15.13;;;8.55;;
69203;SDS011;56317;27.658;85.326;2023-08-08T13:46:47;18.00;;;8.95;;
69203;SDS011;56317;27.658;85.326;2023-08-08T13:49:15;14.35;;;8.88;;
69203;SDS011;56317;27.658;85.326;2023-08-08T13:51:42;15.50;;;8.75;;
69203;SDS011;56317;27.658;85.326;2023-08-08T13:54:09;17.52;;;9.02;;
69203;SDS011;56317;27.658;85.326;2023-08-08T13:56:36;17.70;;;9.55;;
69203;SDS011;56317;27.658;85.326;2023-08-08T13:59:03;18.17;;;9.55;;
69203;SDS011;56317;27.658;85.326;2023-08-08T14:01:31;14.40;;;8.98;;
69203;SDS011;56317;27.658;85.326;2023-08-08T14:03:58;20.23;;;8.52;;
69203;SDS011;56317;27.658;85.326;2023-08-08T14:06:25;15.88;;;9.00;;
69203;SDS011;56317;27.658;85.326;2023-08-08T14:08:52;16.40;;;8.55;;
69203;SDS011;56317;27.658;85.326;2023-08-08T14:11:19;17.15;;;8.77;;
69203;SDS011;56317;27.658;85.326;2023-08-08T14:13:47;17.98;;;8.95;;
69203;SDS011;56317;27.658;85.326;2023-08-08T14:16:14;15.90;;;9.15;;
69203;SDS011;56317;27.658;85.326;2023-08-08T14:18:42;15.82;;;8.55;;
69203;SDS011;56317;27.658;85.326;2023-08-08T14:21:10;19.80;;;8.95;;
69203;SDS011;56317;27.658;85.326;2023-08-08T14:23:37;24.27;;;9.55;;
69203;SDS011;56317;27.658;85.326;2023-08-08T14:26:04;17.33;;;9.07;;
69203;SDS011;56317;27.658;85.326;2023-08-08T14:28:31;14.82;;;7.65;;
69203;SDS011;56317;27.658;85.326;2023-08-08T14:30:58;14.95;;;8.05;;
69203;SDS011;56317;27.658;85.326;2023-08-08T14:33:27;19.20;;;8.68;;
69203;SDS011;56317;27.658;85.326;2023-08-08T14:35:54;20.08;;;9.20;;
69203;SDS011;56317;27.658;85.326;2023-08-08T14:38:23;22.27;;;11.38;;
69203;SDS011;56317;27.658;85.326;2023-08-08T14:40:51;18.83;;;10.25;;
69203;SDS011;56317;27.658;85.326;2023-08-08T14:43:19;19.60;;;11.30;;
69203;SDS011;56317;27.658;85.326;2023-08-08T14:45:46;25.50;;;10.02;;